sensor_id;sensor_type;location;lat;lon;timestamp;P1;durP1;ratioP1;P2;durP2;ratioP2
41923;SDS011;27613;48.116;11.656;2022-11-15T00:00:16;5.43;;;4.10;;
41923;SDS011;27613;48.116;11.656;2022-11-15T00:02:42;7.50;;;4.32;;
41923;SDS011;27613;48.116;11.656;2022-11-15T00:05:07;7.07;;;4.70;;
41923;SDS011;27613;48.116;11.656;2022-11-15T00:07:33;7.85;;;5.15;;
41923;SDS011;27613;48.116;11.656;2022-11-15T00:09:58;7.05;;;4.30;;
41923;SDS011;27613;48.116;11.656;2022-11-15T00:12:24;8.20;;;4.10;;
41923;SDS011;27613;48.116;11.656;2022-11-15T00:14:49;6.82;;;4.28;;
41923;SDS011;27613;48.116;11.656;2022-11-15T00:17:15;4.60;;;3.60;;
41923;SDS011;27613;48.116;11.656;2022-11-15T00:19:40;4.80;;;3.47;;
41923;SDS011;27613;48.116;11.656;2022-11-15T00:22:06;6.63;;;4.10;;
41923;SDS011;27613;48.116;11.656;2022-11-15T00:24:31;5.22;;;3.70;;
41923;SDS011;27613;48.116;11.656;2022-11-15T00:26:57;5.65;;;3.95;;
41923;SDS011;27613;48.116;11.656;2022-11-15T00:29:22;5.25;;;3.50;;
41923;SDS011;27613;48.116;11.656;2022-11-15T00:31:48;9.77;;;3.83;;
41923;SDS011;27613;48.116;11.656;2022-11-15T00:34:14;4.30;;;3.28;;
41923;SDS011;27613;48.116;11.656;2022-11-15T00:36:39;5.32;;;3.60;;
41923;SDS011;27613;48.116;11.656;2022-11-15T00:39:05;4.72;;;3.65;;
41923;SDS011;27613;48.116;11.656;2022-11-15T00:41:30;5.15;;;3.58;;
41923;SDS011;27613;48.116;11.656;2022-11-15T00:43:56;6.15;;;3.88;;
41923;SDS011;27613;48.116;11.656;2022-11-15T00:46:22;5.70;;;4.00;;
41923;SDS011;27613;48.116;11.656;2022-11-15T00:48:47;5.00;;;3.08;;
41923;SDS011;27613;48.116;11.656;2022-11-15T00:51:13;7.55;;;4.00;;
41923;SDS011;27613;48.116;11.656;2022-11-15T00:53:38;4.85;;;3.80;;
41923;SDS011;27613;48.116;11.656;2022-11-15T00:56:04;6.18;;;4.10;;
41923;SDS011;27613;48.116;11.656;2022-11-15T00:58:30;5.43;;;3.67;;
41923;SDS011;27613;48.116;11.656;2022-11-15T01:00:55;5.97;;;3.55;;
41923;SDS011;27613;48.116;11.656;2022-11-15T01:03:21;4.80;;;3.33;;
41923;SDS011;27613;48.116;11.656;2022-11-15T01:05:47;5.30;;;3.88;;
41923;SDS011;27613;48.116;11.656;2022-11-15T01:08:13;5.63;;;3.75;;
41923;SDS011;27613;48.116;11.656;2022-11-15T01:10:39;5.18;;;3.58;;
41923;SDS011;27613;48.116;11.656;2022-11-15T01:13:05;6.15;;;4.13;;
41923;SDS011;27613;48.116;11.656;2022-11-15T01:15:30;6.32;;;4.22;;
41923;SDS011;27613;48.116;11.656;2022-11-15T01:17:56;4.38;;;3.13;;
41923;SDS011;27613;48.116;11.656;2022-11-15T01:20:21;5.38;;;3.33;;
41923;SDS011;27613;48.116;11.656;2022-11-15T01:22:47;5.40;;;3.42;;
41923;SDS011;27613;48.116;11.656;2022-11-15T01:25:13;5.88;;;3.65;;
41923;SDS011;27613;48.116;11.656;2022-11-15T01:27:38;5.38;;;3.50;;
41923;SDS011;27613;48.116;11.656;2022-11-15T01:30:04;5.90;;;4.00;;
41923;SDS011;27613;48.116;11.656;2022-11-15T01:32:30;6.45;;;3.60;;
41923;SDS011;27613;48.116;11.656;2022-11-15T01:34:56;4.88;;;3.60;;
41923;SDS011;27613;48.116;11.656;2022-11-15T01:37:21;5.00;;;3.30;;
41923;SDS011;27613;48.116;11.656;2022-11-15T01:39:47;6.68;;;3.55;;
41923;SDS011;27613;48.116;11.656;2022-11-15T01:42:13;4.97;;;3.65;;
41923;SDS011;27613;48.116;11.656;2022-11-15T01:47:22;4.78;;;3.30;;
41923;SDS011;27613;48.116;11.656;2022-11-15T01:49:59;5.15;;;3.28;;
41923;SDS011;27613;48.116;11.656;2022-11-15T01:52:30;3.50;;;2.65;;
41923;SDS011;27613;48.116;11.656;2022-11-15T01:55:21;9.35;;;3.55;;
41923;SDS011;27613;48.116;11.656;2022-11-15T01:57:47;4.63;;;3.35;;
41923;SDS011;27613;48.116;11.656;2022-11-15T02:00:16;4.68;;;3.05;;
41923;SDS011;27613;48.116;11.656;2022-11-15T02:02:42;3.95;;;2.97;;
41923;SDS011;27613;48.116;11.656;2022-11-15T02:05:08;4.30;;;3.03;;
41923;SDS011;27613;48.116;11.656;2022-11-15T02:07:34;6.63;;;3.30;;
41923;SDS011;27613;48.116;11.656;2022-11-15T02:10:13;4.45;;;3.10;;
41923;SDS011;27613;48.116;11.656;2022-11-15T02:12:44;3.90;;;2.70;;
41923;SDS011;27613;48.116;11.656;2022-11-15T02:15:10;3.63;;;3.03;;
41923;SDS011;27613;48.116;11.656;2022-11-15T02:30:10;4.82;;;2.50;;
41923;SDS011;27613;48.116;11.656;2022-11-15T02:32:24;3.83;;;2.40;;
41923;SDS011;27613;48.116;11.656;2022-11-15T02:37:45;4.60;;;2.72;;
41923;SDS011;27613;48.116;11.656;2022-11-15T02:43:10;4.82;;;2.72;;
41923;SDS011;27613;48.116;11.656;2022-11-15T02:49:15;4.00;;;2.65;;
41923;SDS011;27613;48.116;11.656;2022-11-15T02:51:41;5.65;;;2.45;;
41923;SDS011;27613;48.116;11.656;2022-11-15T02:54:14;3.58;;;2.40;;
41923;SDS011;27613;48.116;11.656;2022-11-15T02:56:44;4.22;;;2.78;;
41923;SDS011;27613;48.116;11.656;2022-11-15T03:02:00;4.38;;;3.00;;
41923;SDS011;27613;48.116;11.656;2022-11-15T03:10:41;6.65;;;2.78;;
41923;SDS011;27613;48.116;11.656;2022-11-15T03:13:02;4.05;;;2.70;;
41923;SDS011;27613;48.116;11.656;2022-11-15T03:15:44;3.88;;;2.63;;
41923;SDS011;27613;48.116;11.656;2022-11-15T03:18:19;4.78;;;2.90;;
41923;SDS011;27613;48.116;11.656;2022-11-15T03:20:51;6.00;;;3.08;;
41923;SDS011;27613;48.116;11.656;2022-11-15T03:23:18;3.60;;;2.80;;
41923;SDS011;27613;48.116;11.656;2022-11-15T03:25:45;5.57;;;3.20;;
41923;SDS011;27613;48.116;11.656;2022-11-15T03:28:16;5.13;;;2.92;;
41923;SDS011;27613;48.116;11.656;2022-11-15T03:30:52;3.88;;;2.50;;
41923;SDS011;27613;48.116;11.656;2022-11-15T03:33:20;4.63;;;3.20;;
41923;SDS011;27613;48.116;11.656;2022-11-15T03:35:46;5.05;;;3.03;;
41923;SDS011;27613;48.116;11.656;2022-11-15T03:38:23;4.20;;;3.10;;
41923;SDS011;27613;48.116;11.656;2022-11-15T03:50:03;4.28;;;2.90;;
41923;SDS011;27613;48.116;11.656;2022-11-15T03:52:38;4.40;;;2.90;;
41923;SDS011;27613;48.116;11.656;2022-11-15T03:55:07;4.05;;;2.80;;
41923;SDS011;27613;48.116;11.656;2022-11-15T03:57:38;4.63;;;2.90;;
41923;SDS011;27613;48.116;11.656;2022-11-15T04:00:13;3.58;;;2.67;;
41923;SDS011;27613;48.116;11.656;2022-11-15T04:10:03;4.85;;;2.58;;
41923;SDS011;27613;48.116;11.656;2022-11-15T04:12:59;3.28;;;2.40;;
41923;SDS011;27613;48.116;11.656;2022-11-15T04:15:27;4.70;;;2.80;;
41923;SDS011;27613;48.116;11.656;2022-11-15T04:18:00;3.20;;;2.17;;
41923;SDS011;27613;48.116;11.656;2022-11-15T04:23:56;2.85;;;1.95;;
41923;SDS011;27613;48.116;11.656;2022-11-15T04:26:40;2.95;;;2.33;;
41923;SDS011;27613;48.116;11.656;2022-11-15T04:29:22;3.15;;;2.28;;
41923;SDS011;27613;48.116;11.656;2022-11-15T04:32:04;3.33;;;2.28;;
41923;SDS011;27613;48.116;11.656;2022-11-15T04:34:34;3.45;;;2.42;;
41923;SDS011;27613;48.116;11.656;2022-11-15T04:37:15;2.85;;;1.92;;
41923;SDS011;27613;48.116;11.656;2022-11-15T04:39:55;3.58;;;2.40;;
41923;SDS011;27613;48.116;11.656;2022-11-15T04:42:20;2.50;;;1.98;;
41923;SDS011;27613;48.116;11.656;2022-11-15T04:44:52;3.65;;;2.38;;
41923;SDS011;27613;48.116;11.656;2022-11-15T04:47:26;2.88;;;2.22;;
41923;SDS011;27613;48.116;11.656;2022-11-15T04:50:14;3.75;;;2.58;;
41923;SDS011;27613;48.116;11.656;2022-11-15T04:52:54;3.13;;;2.05;;
41923;SDS011;27613;48.116;11.656;2022-11-15T04:55:23;3.28;;;2.05;;
41923;SDS011;27613;48.116;11.656;2022-11-15T04:58:15;2.47;;;1.90;;
41923;SDS011;27613;48.116;11.656;2022-11-15T05:00:58;2.78;;;1.95;;
41923;SDS011;27613;48.116;11.656;2022-11-15T05:06:42;4.18;;;2.22;;
41923;SDS011;27613;48.116;11.656;2022-11-15T05:09:13;3.97;;;2.58;;
41923;SDS011;27613;48.116;11.656;2022-11-15T05:11:42;3.65;;;2.20;;
41923;SDS011;27613;48.116;11.656;2022-11-15T05:14:18;3.13;;;2.15;;
41923;SDS011;27613;48.116;11.656;2022-11-15T05:16:55;4.07;;;2.75;;
41923;SDS011;27613;48.116;11.656;2022-11-15T05:19:24;6.05;;;2.22;;
41923;SDS011;27613;48.116;11.656;2022-11-15T05:22:10;3.90;;;2.30;;
41923;SDS011;27613;48.116;11.656;2022-11-15T05:24:39;3.30;;;2.20;;
41923;SDS011;27613;48.116;11.656;2022-11-15T05:27:04;3.88;;;2.60;;
41923;SDS011;27613;48.116;11.656;2022-11-15T05:29:30;3.47;;;2.30;;
41923;SDS011;27613;48.116;11.656;2022-11-15T05:31:56;5.10;;;2.97;;
41923;SDS011;27613;48.116;11.656;2022-11-15T05:34:21;3.95;;;2.95;;
41923;SDS011;27613;48.116;11.656;2022-11-15T05:36:49;3.92;;;2.67;;
41923;SDS011;27613;48.116;11.656;2022-11-15T05:39:20;3.67;;;2.47;;
41923;SDS011;27613;48.116;11.656;2022-11-15T05:42:00;3.60;;;2.47;;
41923;SDS011;27613;48.116;11.656;2022-11-15T05:44:39;3.60;;;2.30;;
41923;SDS011;27613;48.116;11.656;2022-11-15T05:47:13;3.22;;;2.30;;
41923;SDS011;27613;48.116;11.656;2022-11-15T05:49:59;3.20;;;2.28;;
41923;SDS011;27613;48.116;11.656;2022-11-15T05:52:29;3.38;;;2.50;;
41923;SDS011;27613;48.116;11.656;2022-11-15T05:55:06;6.93;;;4.32;;
41923;SDS011;27613;48.116;11.656;2022-11-15T05:57:50;9.98;;;7.22;;
41923;SDS011;27613;48.116;11.656;2022-11-15T06:00:28;11.30;;;10.07;;
41923;SDS011;27613;48.116;11.656;2022-11-15T06:02:56;8.98;;;5.68;;
41923;SDS011;27613;48.116;11.656;2022-11-15T06:05:22;5.32;;;4.43;;
41923;SDS011;27613;48.116;11.656;2022-11-15T06:07:50;3.75;;;2.75;;
41923;SDS011;27613;48.116;11.656;2022-11-15T06:10:25;4.93;;;3.72;;
41923;SDS011;27613;48.116;11.656;2022-11-15T06:12:59;5.80;;;3.83;;
41923;SDS011;27613;48.116;11.656;2022-11-15T06:15:34;5.32;;;3.47;;
41923;SDS011;27613;48.116;11.656;2022-11-15T06:18:09;6.35;;;3.85;;
41923;SDS011;27613;48.116;11.656;2022-11-15T06:20:37;7.97;;;3.97;;
41923;SDS011;27613;48.116;11.656;2022-11-15T06:23:08;5.63;;;4.43;;
41923;SDS011;27613;48.116;11.656;2022-11-15T06:25:38;5.85;;;4.32;;
41923;SDS011;27613;48.116;11.656;2022-11-15T06:28:07;4.45;;;3.25;;
41923;SDS011;27613;48.116;11.656;2022-11-15T06:30:33;4.22;;;3.05;;
41923;SDS011;27613;48.116;11.656;2022-11-15T06:33:17;3.97;;;3.13;;
41923;SDS011;27613;48.116;11.656;2022-11-15T06:35:51;5.30;;;3.25;;
41923;SDS011;27613;48.116;11.656;2022-11-15T06:38:34;5.05;;;3.40;;
41923;SDS011;27613;48.116;11.656;2022-11-15T06:41:11;5.75;;;3.53;;
41923;SDS011;27613;48.116;11.656;2022-11-15T06:43:43;3.78;;;2.88;;
41923;SDS011;27613;48.116;11.656;2022-11-15T06:46:11;4.43;;;3.22;;
41923;SDS011;27613;48.116;11.656;2022-11-15T06:48:40;5.47;;;3.47;;
41923;SDS011;27613;48.116;11.656;2022-11-15T06:51:19;4.22;;;3.17;;
41923;SDS011;27613;48.116;11.656;2022-11-15T06:53:56;4.35;;;3.33;;
41923;SDS011;27613;48.116;11.656;2022-11-15T06:56:30;4.13;;;2.88;;
41923;SDS011;27613;48.116;11.656;2022-11-15T06:59:01;9.85;;;3.30;;
41923;SDS011;27613;48.116;11.656;2022-11-15T07:01:32;8.05;;;3.35;;
41923;SDS011;27613;48.116;11.656;2022-11-15T07:04:06;4.88;;;3.20;;
41923;SDS011;27613;48.116;11.656;2022-11-15T07:06:39;4.43;;;3.05;;
41923;SDS011;27613;48.116;11.656;2022-11-15T07:09:10;8.50;;;3.70;;
41923;SDS011;27613;48.116;11.656;2022-11-15T07:11:36;9.65;;;5.45;;
41923;SDS011;27613;48.116;11.656;2022-11-15T07:14:05;10.10;;;3.97;;
41923;SDS011;27613;48.116;11.656;2022-11-15T07:17:03;5.22;;;3.70;;
41923;SDS011;27613;48.116;11.656;2022-11-15T07:19:34;6.65;;;4.25;;
41923;SDS011;27613;48.116;11.656;2022-11-15T07:22:00;5.63;;;3.15;;
41923;SDS011;27613;48.116;11.656;2022-11-15T07:24:38;17.73;;;3.60;;
41923;SDS011;27613;48.116;11.656;2022-11-15T07:27:09;7.75;;;5.07;;
41923;SDS011;27613;48.116;11.656;2022-11-15T07:29:37;7.60;;;4.20;;
41923;SDS011;27613;48.116;11.656;2022-11-15T07:32:10;5.47;;;3.38;;
41923;SDS011;27613;48.116;11.656;2022-11-15T07:34:36;8.88;;;3.80;;
41923;SDS011;27613;48.116;11.656;2022-11-15T07:37:10;4.75;;;2.75;;
41923;SDS011;27613;48.116;11.656;2022-11-15T07:39:45;5.38;;;4.32;;
41923;SDS011;27613;48.116;11.656;2022-11-15T07:42:20;23.45;;;14.95;;
41923;SDS011;27613;48.116;11.656;2022-11-15T07:45:12;13.43;;;9.27;;
41923;SDS011;27613;48.116;11.656;2022-11-15T07:47:54;6.88;;;4.30;;
41923;SDS011;27613;48.116;11.656;2022-11-15T07:50:31;5.03;;;2.67;;
41923;SDS011;27613;48.116;11.656;2022-11-15T07:56:34;3.85;;;2.15;;
41923;SDS011;27613;48.116;11.656;2022-11-15T07:59:08;4.03;;;2.33;;
41923;SDS011;27613;48.116;11.656;2022-11-15T08:01:43;6.68;;;4.72;;
41923;SDS011;27613;48.116;11.656;2022-11-15T08:04:39;7.45;;;3.60;;
41923;SDS011;27613;48.116;11.656;2022-11-15T08:07:33;4.85;;;2.75;;
41923;SDS011;27613;48.116;11.656;2022-11-15T08:10:32;3.60;;;2.22;;
41923;SDS011;27613;48.116;11.656;2022-11-15T08:13:13;3.08;;;2.00;;
41923;SDS011;27613;48.116;11.656;2022-11-15T08:18:38;3.13;;;2.05;;
41923;SDS011;27613;48.116;11.656;2022-11-15T08:21:09;4.47;;;2.13;;
41923;SDS011;27613;48.116;11.656;2022-11-15T08:23:46;3.78;;;2.00;;
41923;SDS011;27613;48.116;11.656;2022-11-15T08:26:15;3.85;;;2.05;;
41923;SDS011;27613;48.116;11.656;2022-11-15T08:32:04;3.92;;;1.88;;
41923;SDS011;27613;48.116;11.656;2022-11-15T08:37:49;3.72;;;2.13;;
41923;SDS011;27613;48.116;11.656;2022-11-15T08:40:15;2.60;;;1.80;;
41923;SDS011;27613;48.116;11.656;2022-11-15T08:42:41;6.82;;;1.60;;
41923;SDS011;27613;48.116;11.656;2022-11-15T08:45:07;2.45;;;1.80;;
41923;SDS011;27613;48.116;11.656;2022-11-15T08:47:33;3.50;;;1.60;;
41923;SDS011;27613;48.116;11.656;2022-11-15T08:49:59;2.58;;;1.60;;
41923;SDS011;27613;48.116;11.656;2022-11-15T08:52:25;2.40;;;1.50;;
41923;SDS011;27613;48.116;11.656;2022-11-15T08:54:51;2.03;;;1.50;;
41923;SDS011;27613;48.116;11.656;2022-11-15T08:57:16;1.98;;;1.50;;
41923;SDS011;27613;48.116;11.656;2022-11-15T08:59:42;1.63;;;1.23;;
41923;SDS011;27613;48.116;11.656;2022-11-15T09:02:12;3.67;;;1.50;;
41923;SDS011;27613;48.116;11.656;2022-11-15T09:04:39;2.75;;;1.85;;
41923;SDS011;27613;48.116;11.656;2022-11-15T09:07:09;2.33;;;1.60;;
41923;SDS011;27613;48.116;11.656;2022-11-15T09:09:35;2.45;;;1.45;;
41923;SDS011;27613;48.116;11.656;2022-11-15T09:12:01;2.08;;;1.40;;
41923;SDS011;27613;48.116;11.656;2022-11-15T09:14:27;1.90;;;1.50;;
41923;SDS011;27613;48.116;11.656;2022-11-15T09:16:53;1.90;;;1.13;;
41923;SDS011;27613;48.116;11.656;2022-11-15T09:19:18;1.92;;;1.25;;
41923;SDS011;27613;48.116;11.656;2022-11-15T09:21:44;2.10;;;1.33;;
41923;SDS011;27613;48.116;11.656;2022-11-15T09:24:09;1.95;;;1.33;;
41923;SDS011;27613;48.116;11.656;2022-11-15T09:26:35;1.83;;;1.30;;
41923;SDS011;27613;48.116;11.656;2022-11-15T09:29:00;2.97;;;1.17;;
41923;SDS011;27613;48.116;11.656;2022-11-15T09:31:27;1.85;;;1.30;;
41923;SDS011;27613;48.116;11.656;2022-11-15T09:33:52;1.70;;;1.13;;
41923;SDS011;27613;48.116;11.656;2022-11-15T09:36:18;2.88;;;1.58;;
41923;SDS011;27613;48.116;11.656;2022-11-15T09:38:43;1.67;;;1.30;;
41923;SDS011;27613;48.116;11.656;2022-11-15T09:49:09;1.33;;;0.90;;
41923;SDS011;27613;48.116;11.656;2022-11-15T09:51:38;2.03;;;1.10;;
41923;SDS011;27613;48.116;11.656;2022-11-15T09:56:46;7.57;;;1.77;;
41923;SDS011;27613;48.116;11.656;2022-11-15T10:05:10;2.88;;;2.17;;
41923;SDS011;27613;48.116;11.656;2022-11-15T10:13:26;2.03;;;1.60;;
41923;SDS011;27613;48.116;11.656;2022-11-15T10:15:56;1.77;;;1.10;;
41923;SDS011;27613;48.116;11.656;2022-11-15T10:18:36;2.05;;;1.55;;
41923;SDS011;27613;48.116;11.656;2022-11-15T10:21:17;2.08;;;1.55;;
41923;SDS011;27613;48.116;11.656;2022-11-15T10:23:48;1.95;;;1.45;;
41923;SDS011;27613;48.116;11.656;2022-11-15T10:26:16;1.73;;;1.10;;
41923;SDS011;27613;48.116;11.656;2022-11-15T10:28:42;1.70;;;1.23;;
41923;SDS011;27613;48.116;11.656;2022-11-15T10:31:24;1.90;;;1.20;;
41923;SDS011;27613;48.116;11.656;2022-11-15T10:33:57;1.73;;;1.13;;
41923;SDS011;27613;48.116;11.656;2022-11-15T10:39:02;1.67;;;1.10;;
41923;SDS011;27613;48.116;11.656;2022-11-15T10:46:36;2.40;;;1.45;;
41923;SDS011;27613;48.116;11.656;2022-11-15T10:49:12;1.87;;;1.33;;
41923;SDS011;27613;48.116;11.656;2022-11-15T10:52:20;1.95;;;1.38;;
41923;SDS011;27613;48.116;11.656;2022-11-15T10:54:46;1.90;;;1.20;;
41923;SDS011;27613;48.116;11.656;2022-11-15T10:57:16;1.63;;;1.13;;
41923;SDS011;27613;48.116;11.656;2022-11-15T11:02:27;2.08;;;1.13;;
41923;SDS011;27613;48.116;11.656;2022-11-15T11:04:53;1.20;;;1.10;;
41923;SDS011;27613;48.116;11.656;2022-11-15T11:07:23;1.48;;;1.00;;
41923;SDS011;27613;48.116;11.656;2022-11-15T11:09:58;1.15;;;1.00;;
41923;SDS011;27613;48.116;11.656;2022-11-15T11:14:56;1.55;;;1.13;;
41923;SDS011;27613;48.116;11.656;2022-11-15T11:22:52;2.03;;;1.20;;
41923;SDS011;27613;48.116;11.656;2022-11-15T11:25:56;1.77;;;1.00;;
41923;SDS011;27613;48.116;11.656;2022-11-15T11:39:46;1.58;;;1.27;;
41923;SDS011;27613;48.116;11.656;2022-11-15T11:42:36;1.20;;;0.88;;
41923;SDS011;27613;48.116;11.656;2022-11-15T11:48:09;2.53;;;1.30;;
41923;SDS011;27613;48.116;11.656;2022-11-15T11:50:48;1.98;;;1.10;;
41923;SDS011;27613;48.116;11.656;2022-11-15T11:53:27;1.95;;;1.30;;
41923;SDS011;27613;48.116;11.656;2022-11-15T11:56:02;2.20;;;1.00;;
41923;SDS011;27613;48.116;11.656;2022-11-15T12:03:55;0.98;;;0.60;;
41923;SDS011;27613;48.116;11.656;2022-11-15T12:06:32;1.55;;;0.90;;
41923;SDS011;27613;48.116;11.656;2022-11-15T12:11:58;1.98;;;1.10;;
41923;SDS011;27613;48.116;11.656;2022-11-15T12:17:27;1.00;;;0.80;;
41923;SDS011;27613;48.116;11.656;2022-11-15T12:19:57;2.47;;;0.90;;
41923;SDS011;27613;48.116;11.656;2022-11-15T12:25:02;1.90;;;1.20;;
41923;SDS011;27613;48.116;11.656;2022-11-15T12:27:46;1.42;;;1.08;;
41923;SDS011;27613;48.116;11.656;2022-11-15T12:30:17;2.70;;;1.20;;
41923;SDS011;27613;48.116;11.656;2022-11-15T12:32:54;2.72;;;1.10;;
41923;SDS011;27613;48.116;11.656;2022-11-15T12:38:08;1.58;;;0.95;;
41923;SDS011;27613;48.116;11.656;2022-11-15T12:40:39;1.35;;;1.00;;
41923;SDS011;27613;48.116;11.656;2022-11-15T12:43:41;1.38;;;0.98;;
41923;SDS011;27613;48.116;11.656;2022-11-15T12:48:57;1.92;;;1.30;;
41923;SDS011;27613;48.116;11.656;2022-11-15T12:52:04;1.42;;;1.20;;
41923;SDS011;27613;48.116;11.656;2022-11-15T12:57:32;2.45;;;1.33;;
41923;SDS011;27613;48.116;11.656;2022-11-15T13:02:31;1.40;;;1.15;;
41923;SDS011;27613;48.116;11.656;2022-11-15T13:17:44;3.15;;;1.05;;
41923;SDS011;27613;48.116;11.656;2022-11-15T13:25:48;1.58;;;1.00;;
41923;SDS011;27613;48.116;11.656;2022-11-15T13:31:03;2.28;;;1.20;;
41923;SDS011;27613;48.116;11.656;2022-11-15T13:33:48;1.65;;;1.10;;
41923;SDS011;27613;48.116;11.656;2022-11-15T13:36:21;3.55;;;1.20;;
41923;SDS011;27613;48.116;11.656;2022-11-15T13:41:26;1.85;;;1.20;;
41923;SDS011;27613;48.116;11.656;2022-11-15T13:43:53;1.10;;;0.82;;
41923;SDS011;27613;48.116;11.656;2022-11-15T13:46:27;1.90;;;1.00;;
41923;SDS011;27613;48.116;11.656;2022-11-15T13:48:56;2.08;;;1.00;;
41923;SDS011;27613;48.116;11.656;2022-11-15T13:53:56;1.55;;;1.25;;
41923;SDS011;27613;48.116;11.656;2022-11-15T13:56:44;1.83;;;1.00;;
41923;SDS011;27613;48.116;11.656;2022-11-15T14:02:18;1.70;;;1.30;;
41923;SDS011;27613;48.116;11.656;2022-11-15T14:07:40;2.35;;;1.52;;
41923;SDS011;27613;48.116;11.656;2022-11-15T14:10:54;2.17;;;1.45;;
41923;SDS011;27613;48.116;11.656;2022-11-15T14:13:29;2.38;;;1.40;;
41923;SDS011;27613;48.116;11.656;2022-11-15T14:16:15;2.47;;;1.67;;
41923;SDS011;27613;48.116;11.656;2022-11-15T14:18:47;3.08;;;1.63;;
41923;SDS011;27613;48.116;11.656;2022-11-15T14:21:14;3.10;;;1.55;;
41923;SDS011;27613;48.116;11.656;2022-11-15T14:23:41;2.53;;;1.52;;
41923;SDS011;27613;48.116;11.656;2022-11-15T14:26:10;3.33;;;1.90;;
41923;SDS011;27613;48.116;11.656;2022-11-15T14:28:57;2.22;;;1.50;;
41923;SDS011;27613;48.116;11.656;2022-11-15T14:31:42;2.30;;;1.60;;
41923;SDS011;27613;48.116;11.656;2022-11-15T14:34:11;1.92;;;1.30;;
41923;SDS011;27613;48.116;11.656;2022-11-15T14:36:36;2.35;;;1.60;;
41923;SDS011;27613;48.116;11.656;2022-11-15T14:39:02;2.50;;;1.58;;
41923;SDS011;27613;48.116;11.656;2022-11-15T14:41:33;3.13;;;1.88;;
41923;SDS011;27613;48.116;11.656;2022-11-15T14:44:03;2.60;;;1.80;;
41923;SDS011;27613;48.116;11.656;2022-11-15T14:46:29;2.35;;;1.58;;
41923;SDS011;27613;48.116;11.656;2022-11-15T14:48:55;3.22;;;1.95;;
41923;SDS011;27613;48.116;11.656;2022-11-15T14:51:21;4.10;;;2.42;;
41923;SDS011;27613;48.116;11.656;2022-11-15T14:53:46;5.15;;;2.28;;
41923;SDS011;27613;48.116;11.656;2022-11-15T14:56:13;2.78;;;1.67;;
41923;SDS011;27613;48.116;11.656;2022-11-15T14:58:39;4.30;;;2.17;;
41923;SDS011;27613;48.116;11.656;2022-11-15T15:01:19;3.58;;;2.35;;
41923;SDS011;27613;48.116;11.656;2022-11-15T15:03:50;4.55;;;2.75;;
41923;SDS011;27613;48.116;11.656;2022-11-15T15:06:17;6.60;;;2.72;;
41923;SDS011;27613;48.116;11.656;2022-11-15T15:08:43;5.55;;;2.60;;
41923;SDS011;27613;48.116;11.656;2022-11-15T15:11:10;5.32;;;3.17;;
41923;SDS011;27613;48.116;11.656;2022-11-15T15:13:41;4.78;;;2.80;;
41923;SDS011;27613;48.116;11.656;2022-11-15T15:16:06;5.97;;;2.58;;
41923;SDS011;27613;48.116;11.656;2022-11-15T15:18:32;5.75;;;2.58;;
41923;SDS011;27613;48.116;11.656;2022-11-15T15:20:58;5.30;;;3.33;;
41923;SDS011;27613;48.116;11.656;2022-11-15T15:23:27;6.10;;;3.45;;
41923;SDS011;27613;48.116;11.656;2022-11-15T15:25:55;6.22;;;3.28;;
41923;SDS011;27613;48.116;11.656;2022-11-15T15:28:21;5.00;;;3.00;;
41923;SDS011;27613;48.116;11.656;2022-11-15T15:30:47;6.43;;;3.40;;
41923;SDS011;27613;48.116;11.656;2022-11-15T15:33:14;3.50;;;2.80;;
41923;SDS011;27613;48.116;11.656;2022-11-15T15:35:39;5.07;;;3.25;;
41923;SDS011;27613;48.116;11.656;2022-11-15T15:38:05;8.10;;;3.50;;
41923;SDS011;27613;48.116;11.656;2022-11-15T15:43:03;3.97;;;2.83;;
41923;SDS011;27613;48.116;11.656;2022-11-15T15:45:29;4.55;;;2.90;;
41923;SDS011;27613;48.116;11.656;2022-11-15T15:47:56;6.15;;;3.45;;
41923;SDS011;27613;48.116;11.656;2022-11-15T15:52:55;6.70;;;4.10;;
41923;SDS011;27613;48.116;11.656;2022-11-15T15:55:22;6.97;;;4.38;;
41923;SDS011;27613;48.116;11.656;2022-11-15T15:57:48;6.90;;;4.85;;
41923;SDS011;27613;48.116;11.656;2022-11-15T16:00:14;11.32;;;7.43;;
41923;SDS011;27613;48.116;11.656;2022-11-15T16:02:41;19.27;;;6.07;;
41923;SDS011;27613;48.116;11.656;2022-11-15T16:05:07;14.07;;;7.53;;
41923;SDS011;27613;48.116;11.656;2022-11-15T16:07:34;12.18;;;6.72;;
41923;SDS011;27613;48.116;11.656;2022-11-15T16:10:00;13.02;;;6.03;;
41923;SDS011;27613;48.116;11.656;2022-11-15T16:12:34;8.70;;;5.65;;
41923;SDS011;27613;48.116;11.656;2022-11-15T16:15:00;6.97;;;4.80;;
41923;SDS011;27613;48.116;11.656;2022-11-15T16:17:28;9.70;;;5.57;;
41923;SDS011;27613;48.116;11.656;2022-11-15T16:19:56;10.55;;;6.03;;
41923;SDS011;27613;48.116;11.656;2022-11-15T16:22:22;13.40;;;8.45;;
41923;SDS011;27613;48.116;11.656;2022-11-15T16:24:50;13.90;;;7.28;;
41923;SDS011;27613;48.116;11.656;2022-11-15T16:27:18;10.13;;;7.13;;
41923;SDS011;27613;48.116;11.656;2022-11-15T16:29:54;14.85;;;7.63;;
41923;SDS011;27613;48.116;11.656;2022-11-15T16:32:27;12.25;;;8.30;;
41923;SDS011;27613;48.116;11.656;2022-11-15T16:35:05;12.98;;;8.10;;
41923;SDS011;27613;48.116;11.656;2022-11-15T16:37:37;17.10;;;8.68;;
41923;SDS011;27613;48.116;11.656;2022-11-15T16:40:10;9.93;;;7.53;;
41923;SDS011;27613;48.116;11.656;2022-11-15T16:42:42;18.33;;;8.48;;
41923;SDS011;27613;48.116;11.656;2022-11-15T16:45:11;12.05;;;8.45;;
41923;SDS011;27613;48.116;11.656;2022-11-15T16:51:33;11.98;;;8.55;;
41923;SDS011;27613;48.116;11.656;2022-11-15T16:54:45;14.80;;;7.87;;
41923;SDS011;27613;48.116;11.656;2022-11-15T16:57:31;10.43;;;7.88;;
41923;SDS011;27613;48.116;11.656;2022-11-15T17:00:24;11.93;;;8.70;;
41923;SDS011;27613;48.116;11.656;2022-11-15T17:09:55;11.57;;;7.80;;
41923;SDS011;27613;48.116;11.656;2022-11-15T17:12:52;11.85;;;8.13;;
41923;SDS011;27613;48.116;11.656;2022-11-15T17:15:19;12.43;;;8.10;;
41923;SDS011;27613;48.116;11.656;2022-11-15T17:17:51;20.05;;;11.68;;
41923;SDS011;27613;48.116;11.656;2022-11-15T17:20:19;21.85;;;9.98;;
41923;SDS011;27613;48.116;11.656;2022-11-15T17:22:46;11.85;;;8.90;;
41923;SDS011;27613;48.116;11.656;2022-11-15T17:25:12;16.83;;;9.70;;
41923;SDS011;27613;48.116;11.656;2022-11-15T17:27:38;17.58;;;13.07;;
41923;SDS011;27613;48.116;11.656;2022-11-15T17:30:04;22.42;;;16.85;;
41923;SDS011;27613;48.116;11.656;2022-11-15T17:32:31;23.05;;;14.80;;
41923;SDS011;27613;48.116;11.656;2022-11-15T17:34:59;25.60;;;16.27;;
41923;SDS011;27613;48.116;11.656;2022-11-15T17:37:25;29.55;;;14.75;;
41923;SDS011;27613;48.116;11.656;2022-11-15T17:39:53;20.02;;;13.05;;
41923;SDS011;27613;48.116;11.656;2022-11-15T17:42:18;20.90;;;12.27;;
41923;SDS011;27613;48.116;11.656;2022-11-15T17:44:47;16.15;;;11.52;;
41923;SDS011;27613;48.116;11.656;2022-11-15T17:47:12;15.52;;;11.77;;
41923;SDS011;27613;48.116;11.656;2022-11-15T17:49:38;17.88;;;9.82;;
41923;SDS011;27613;48.116;11.656;2022-11-15T17:52:05;15.77;;;10.82;;
41923;SDS011;27613;48.116;11.656;2022-11-15T17:54:31;20.83;;;10.90;;
41923;SDS011;27613;48.116;11.656;2022-11-15T17:57:02;24.77;;;10.05;;
41923;SDS011;27613;48.116;11.656;2022-11-15T17:59:31;13.13;;;9.27;;
41923;SDS011;27613;48.116;11.656;2022-11-15T18:01:57;17.55;;;10.15;;
41923;SDS011;27613;48.116;11.656;2022-11-15T18:04:34;12.02;;;8.40;;
41923;SDS011;27613;48.116;11.656;2022-11-15T18:07:04;18.98;;;9.55;;
41923;SDS011;27613;48.116;11.656;2022-11-15T18:09:30;19.85;;;10.50;;
41923;SDS011;27613;48.116;11.656;2022-11-15T18:11:56;14.25;;;9.32;;